Time;durP1;ratioP1;P1;durP2;ratioP2;P2;SDS_P1;SDS_P2;PMS_P1;PMS_P2;Temp;Humidity;BMP_temperature;BMP_pressure;BME280_temperature;BME280_humidity;BME280_pressure;Samples;Min_cycle;Max_cycle;Signal;HPM_P1;HPM_P2
2022/07/06 00:04:18;;;;;;;7.07;2.40;;;19.50;66.20;;;;;;10344503;28;20775;-67
2022/07/06 00:09:22;;;;;;;3.00;2.27;;;19.30;66.90;;;;;;10340110;28;20248;-66
2022/07/06 00:14:22;;;;;;;1.80;1.70;;;19.20;68.00;;;;;;10345813;28;20213;-68
2022/07/06 00:19:23;;;;;;;2.53;1.80;;;19.20;68.60;;;;;;10336284;28;20205;-67
2022/07/06 00:24:24;;;;;;;4.33;2.00;;;19.00;69.40;;;;;;10342913;28;20216;-67
2022/07/06 00:29:24;;;;;;;2.80;1.93;;;19.00;70.00;;;;;;10345229;28;20222;-67
2022/07/06 00:34:25;;;;;;;4.37;1.97;;;19.00;70.40;;;;;;10351644;28;20307;-68
2022/07/06 00:39:28;;;;;;;4.33;1.87;;;19.00;70.50;;;;;;10343865;28;20225;-67
2022/07/06 00:44:29;;;;;;;4.27;2.10;;;18.90;71.10;;;;;;10345474;28;20224;-67
2022/07/06 00:54:50;;;;;;;4.73;2.00;;;18.80;72.50;;;;;;10342816;28;20222;-67
2022/07/06 00:59:50;;;;;;;3.63;2.00;;;18.70;73.30;;;;;;10342334;28;20747;-68
2022/07/06 01:04:51;;;;;;;2.77;2.20;;;18.60;74.30;;;;;;10346531;28;20231;-66
2022/07/06 01:09:55;;;;;;;3.53;2.47;;;18.50;75.00;;;;;;10346949;28;20220;-68
2022/07/06 01:14:56;;;;;;;5.93;2.27;;;18.40;75.90;;;;;;10347146;28;20222;-66
2022/07/06 01:20:15;;;;;;;4.03;2.30;;;18.40;76.60;;;;;;10359557;28;20224;-67
2022/07/06 01:25:15;;;;;;;4.50;2.20;;;18.40;77.40;;;;;;10351566;28;20224;-68
2022/07/06 01:30:18;;;;;;;3.23;2.00;;;18.30;78.10;;;;;;10355869;28;20192;-67
2022/07/06 01:35:19;;;;;;;4.00;1.90;;;18.20;78.90;;;;;;10353775;28;20206;-68
2022/07/06 01:40:20;;;;;;;4.93;2.10;;;18.20;79.80;;;;;;10349334;28;20695;-67
2022/07/06 01:45:20;;;;;;;3.93;2.03;;;18.10;80.70;;;;;;10349489;28;20222;-67
2022/07/06 01:50:21;;;;;;;2.77;1.80;;;18.10;81.40;;;;;;10356015;28;20188;-67
2022/07/06 01:55:22;;;;;;;3.63;1.80;;;18.00;82.40;;;;;;10347590;28;20255;-67
2022/07/06 02:00:22;;;;;;;2.70;1.93;;;17.90;83.80;;;;;;10356175;28;20322;-67
2022/07/06 02:05:23;;;;;;;4.10;2.33;;;17.80;85.10;;;;;;10357808;28;20234;-67
2022/07/06 02:10:23;;;;;;;4.30;2.20;;;17.80;86.20;;;;;;10363783;28;20228;-68
2022/07/06 02:15:24;;;;;;;3.93;1.77;;;17.80;87.30;;;;;;10348591;28;20712;-67
2022/07/06 02:20:25;;;;;;;2.70;1.77;;;17.90;87.80;;;;;;10347798;28;20298;-67
2022/07/06 02:25:25;;;;;;;2.73;2.00;;;17.80;88.60;;;;;;10353833;28;20216;-68
2022/07/06 02:30:26;;;;;;;6.37;1.70;;;17.80;89.80;;;;;;10347905;28;20296;-67
2022/07/06 02:35:27;;;;;;;3.57;2.10;;;17.70;90.40;;;;;;10354029;28;20224;-67
2022/07/06 02:40:27;;;;;;;8.87;2.10;;;17.50;91.30;;;;;;10346919;28;20759;-67
2022/07/06 02:45:28;;;;;;;2.80;2.00;;;17.40;92.30;;;;;;10354548;28;20223;-67
2022/07/06 02:50:28;;;;;;;3.87;2.00;;;17.40;93.00;;;;;;10315120;28;20225;-67
2022/07/06 02:55:29;;;;;;;4.03;1.90;;;17.30;93.50;;;;;;10353814;28;20237;-67
2022/07/06 03:00:30;;;;;;;3.37;1.80;;;17.30;94.00;;;;;;10346058;28;20217;-66
2022/07/06 03:05:30;;;;;;;3.10;2.63;;;17.30;94.70;;;;;;10353649;28;20586;-66
2022/07/06 03:10:34;;;;;;;3.27;1.70;;;17.10;94.90;;;;;;10335852;28;20320;-67
2022/07/06 03:15:34;;;;;;;3.20;2.07;;;17.00;95.40;;;;;;10352399;28;20229;-65
2022/07/06 03:20:38;;;;;;;3.10;1.97;;;17.00;95.70;;;;;;10345097;28;20285;-68
2022/07/06 03:25:39;;;;;;;5.43;2.07;;;16.90;96.00;;;;;;10339725;28;20227;-67
2022/07/06 03:30:39;;;;;;;2.67;1.90;;;16.90;96.60;;;;;;10351785;28;20214;-67
2022/07/06 03:35:40;;;;;;;5.93;1.80;;;16.80;96.90;;;;;;10337262;28;20230;-67
2022/07/06 03:40:40;;;;;;;3.60;1.83;;;16.80;97.00;;;;;;10339527;28;20224;-68
2022/07/06 03:45:41;;;;;;;3.83;1.73;;;16.70;97.60;;;;;;10328646;28;20228;-65
2022/07/06 03:50:42;;;;;;;4.13;1.80;;;16.70;98.00;;;;;;10334869;28;20217;-65
2022/07/06 03:55:42;;;;;;;3.27;1.77;;;16.80;97.90;;;;;;10339678;28;20327;-65
2022/07/06 04:00:43;;;;;;;4.93;1.83;;;16.90;97.50;;;;;;10338242;28;20216;-65
2022/07/06 04:05:44;;;;;;;4.50;1.67;;;17.20;97.00;;;;;;10325948;28;20221;-66
2022/07/06 04:10:47;;;;;;;1.83;1.70;;;17.60;95.90;;;;;;10338799;28;20217;-65
2022/07/06 04:15:48;;;;;;;5.40;2.00;;;17.80;94.70;;;;;;10330918;28;20230;-65
2022/07/06 04:20:48;;;;;;;4.70;2.30;;;18.00;94.00;;;;;;10335421;28;20228;-67
2022/07/06 04:25:49;;;;;;;3.17;2.30;;;18.00;93.50;;;;;;10328244;28;20308;-66
2022/07/06 04:30:50;;;;;;;4.87;2.33;;;18.00;93.40;;;;;;10331504;28;20224;-65
2022/07/06 04:35:51;;;;;;;8.87;1.77;;;18.20;93.90;;;;;;10327317;28;20603;-65
2022/07/06 04:40:51;;;;;;;3.70;1.80;;;18.40;92.90;;;;;;10353529;28;20571;-66
2022/07/06 04:45:52;;;;;;;5.53;1.93;;;18.90;91.60;;;;;;10338573;28;20777;-64
2022/07/06 04:50:52;;;;;;;4.93;2.03;;;18.90;90.70;;;;;;10326833;28;20225;-65
2022/07/06 04:55:53;;;;;;;3.80;1.70;;;18.50;91.70;;;;;;10330356;28;20221;-65
2022/07/06 05:00:55;;;;;;;3.93;1.93;;;18.30;92.40;;;;;;10332477;28;20217;-66
2022/07/06 05:05:55;;;;;;;7.67;1.70;;;18.40;92.60;;;;;;10351117;28;20758;-64
2022/07/06 05:10:56;;;;;;;2.30;1.60;;;19.00;91.80;;;;;;10322052;28;20248;-65
2022/07/06 05:15:57;;;;;;;3.70;1.60;;;21.10;83.70;;;;;;10337590;28;20348;-67
2022/07/06 05:20:57;;;;;;;4.67;1.97;;;22.80;75.20;;;;;;10339516;28;20272;-67
2022/07/06 05:25:58;;;;;;;3.13;1.67;;;24.30;67.40;;;;;;10319319;28;20252;-67
2022/07/06 05:30:59;;;;;;;7.30;1.60;;;25.70;59.70;;;;;;10340744;28;20280;-68
2022/07/06 05:36:00;;;;;;;3.53;1.53;;;25.80;57.80;;;;;;10346346;28;20234;-69
2022/07/06 05:41:02;;;;;;;1.97;1.60;;;26.10;56.70;;;;;;10332450;28;20320;-68
2022/07/06 05:46:03;;;;;;;5.07;1.93;;;26.30;55.60;;;;;;10327405;28;20210;-68
2022/07/06 05:51:04;;;;;;;7.03;2.00;;;26.30;55.30;;;;;;10332220;28;20225;-69
2022/07/06 05:56:05;;;;;;;3.37;1.70;;;26.70;54.20;;;;;;10331661;28;20611;-69
2022/07/06 06:01:07;;;;;;;4.97;2.00;;;26.10;54.60;;;;;;10347150;28;20218;-69
2022/07/06 06:06:07;;;;;;;4.43;1.93;;;25.80;56.20;;;;;;10336003;28;20744;-67
2022/07/06 06:11:09;;;;;;;4.27;2.20;;;25.00;56.80;;;;;;10327498;28;20355;-68
2022/07/06 06:16:10;;;;;;;4.57;2.20;;;24.10;58.70;;;;;;10328262;28;20818;-66
2022/07/06 06:21:10;;;;;;;5.73;2.30;;;23.60;60.70;;;;;;10308363;28;20259;-66
2022/07/06 06:26:11;;;;;;;4.30;2.00;;;23.40;61.90;;;;;;10334493;28;20317;-67
2022/07/06 06:31:12;;;;;;;8.67;3.63;;;23.20;62.20;;;;;;10333113;28;20297;-68
2022/07/06 06:36:14;;;;;;;4.87;1.90;;;23.00;63.30;;;;;;10320145;28;20327;-67
2022/07/06 06:41:14;;;;;;;6.03;2.03;;;23.00;63.20;;;;;;10334787;28;20316;-68
2022/07/06 06:46:18;;;;;;;4.80;1.80;;;23.20;62.70;;;;;;10341574;28;20226;-67
2022/07/06 06:51:18;;;;;;;5.70;2.30;;;23.60;61.10;;;;;;10338754;28;20233;-65
2022/07/06 06:56:19;;;;;;;5.33;2.10;;;24.00;59.80;;;;;;10329036;28;20429;-67
2022/07/06 07:01:20;;;;;;;7.00;2.20;;;23.90;59.30;;;;;;10330986;28;20228;-66
2022/07/06 07:06:21;;;;;;;6.60;2.20;;;23.90;59.40;;;;;;10343673;28;20225;-65
2022/07/06 07:11:21;;;;;;;2.87;1.90;;;24.20;58.90;;;;;;10314999;28;20233;-66
2022/07/06 07:16:24;;;;;;;5.50;2.70;;;24.20;58.70;;;;;;10338448;28;20232;-67
2022/07/06 07:21:24;;;;;;;4.87;2.40;;;24.20;58.50;;;;;;10351190;28;20228;-66
2022/07/06 07:26:26;;;;;;;4.83;2.20;;;24.50;58.20;;;;;;10330159;28;20210;-66
2022/07/06 07:31:27;;;;;;;3.43;2.00;;;24.40;58.40;;;;;;10329150;28;20222;-66
2022/07/06 07:36:27;;;;;;;6.73;2.50;;;24.40;57.80;;;;;;10339913;28;20225;-67
2022/07/06 07:41:28;;;;;;;5.47;2.67;;;24.40;57.90;;;;;;10325446;28;20268;-65
2022/07/06 07:46:29;;;;;;;5.07;2.83;;;26.00;55.00;;;;;;10336481;28;20228;-67
2022/07/06 07:51:29;;;;;;;4.80;2.10;;;27.20;52.00;;;;;;10323649;28;20237;-67
2022/07/06 07:56:30;;;;;;;5.53;2.37;;;27.00;51.90;;;;;;10355048;28;20268;-67
2022/07/06 08:01:30;;;;;;;6.83;2.77;;;26.80;52.40;;;;;;10332056;28;20218;-66
2022/07/06 08:06:31;;;;;;;3.63;1.87;;;27.60;49.70;;;;;;10332078;28;20316;-66
2022/07/06 08:11:32;;;;;;;6.40;2.27;;;27.60;49.70;;;;;;10321684;28;20230;-66
2022/07/06 08:16:33;;;;;;;3.97;1.80;;;27.30;48.30;;;;;;10316566;28;20237;-67
2022/07/06 08:21:34;;;;;;;6.43;1.97;;;27.30;49.00;;;;;;10323059;28;20222;-67
2022/07/06 08:26:35;;;;;;;2.47;1.90;;;27.60;47.90;;;;;;10322393;28;20230;-67
2022/07/06 08:31:35;;;;;;;2.90;1.70;;;27.10;49.00;;;;;;10325686;28;20218;-66
2022/07/06 08:36:39;;;;;;;2.63;1.60;;;26.50;50.20;;;;;;10327608;28;20233;-66
2022/07/06 08:41:42;;;;;;;3.47;2.07;;;26.70;50.40;;;;;;10319754;28;20234;-65
2022/07/06 08:46:43;;;;;;;5.67;2.00;;;27.20;48.80;;;;;;10318806;28;20601;-66
2022/07/06 08:51:45;;;;;;;2.73;1.73;;;27.30;47.50;;;;;;10333556;28;20217;-67
2022/07/06 08:56:46;;;;;;;3.87;2.23;;;29.20;46.20;;;;;;10300431;28;20225;-66
2022/07/06 09:01:47;;;;;;;5.30;2.07;;;30.60;42.60;;;;;;10309251;28;20269;-68
2022/07/06 09:06:50;;;;;;;6.90;2.70;;;29.60;44.70;;;;;;10323382;28;20268;-70
2022/07/06 09:11:51;;;;;;;5.10;2.30;;;29.70;44.20;;;;;;10336664;28;20683;-68
2022/07/06 09:17:02;;;;;;;6.43;2.23;;;31.90;41.50;;;;;;10317367;28;20319;-68
2022/07/06 09:22:06;;;;;;;6.03;1.90;;;34.10;37.40;;;;;;10314479;28;20226;-67
2022/07/06 09:27:14;;;;;;;7.03;1.87;;;35.30;34.60;;;;;;10333218;28;20701;-69
2022/07/06 09:32:20;;;;;;;4.43;2.40;;;34.20;35.50;;;;;;10325217;28;20218;-70
2022/07/06 09:37:23;;;;;;;5.10;2.50;;;31.70;37.80;;;;;;10327105;28;20383;-68
2022/07/06 09:42:30;;;;;;;3.50;1.90;;;31.40;38.90;;;;;;10331696;28;20218;-68
2022/07/06 09:47:31;;;;;;;6.20;2.37;;;32.00;37.90;;;;;;10302510;28;20226;-68
2022/07/06 09:52:35;;;;;;;4.57;2.03;;;30.90;38.90;;;;;;10330056;28;20875;-68
2022/07/06 09:57:36;;;;;;;5.87;2.30;;;32.50;37.10;;;;;;10343091;28;20245;-68
2022/07/06 10:02:36;;;;;;;5.37;2.40;;;32.30;36.80;;;;;;10349765;28;20239;-69
2022/07/06 10:07:37;;;;;;;2.63;1.73;;;32.90;34.80;;;;;;10346926;28;20641;-70
2022/07/06 10:12:42;;;;;;;3.97;1.87;;;31.90;36.20;;;;;;10316046;28;20230;-69
2022/07/06 10:17:43;;;;;;;2.17;1.57;;;32.30;37.00;;;;;;10327661;28;20707;-69
2022/07/06 10:22:44;;;;;;;7.03;2.03;;;35.20;33.40;;;;;;10328907;28;20214;-69
2022/07/06 10:27:47;;;;;;;3.67;2.10;;;36.50;30.70;;;;;;10327269;28;20218;-69
2022/07/06 10:32:49;;;;;;;3.67;1.20;;;37.60;29.10;;;;;;10321198;28;20222;-67
2022/07/06 10:38:07;;;;;;;3.30;1.40;;;38.80;27.80;;;;;;10321559;28;20222;-69
2022/07/06 10:43:09;;;;;;;3.27;1.60;;;40.10;26.70;;;;;;10334562;28;20301;-67
2022/07/06 10:48:12;;;;;;;3.20;1.37;;;39.50;26.20;;;;;;10327025;28;20221;-68
2022/07/06 10:53:20;;;;;;;4.50;1.53;;;36.60;28.00;;;;;;10317820;28;20226;-68
2022/07/06 10:58:47;;;;;;;4.97;1.50;;;35.90;29.70;;;;;;10322063;28;20276;-68
2022/07/06 11:04:09;;;;;;;3.33;1.30;;;37.90;28.10;;;;;;10321703;28;20785;-69
2022/07/06 11:09:11;;;;;;;5.23;1.27;;;38.40;26.70;;;;;;10316231;28;20224;-68
2022/07/06 11:14:21;;;;;;;3.97;1.30;;;39.10;26.00;;;;;;10318054;28;20379;-69
2022/07/06 11:19:26;;;;;;;2.63;1.50;;;39.10;25.50;;;;;;10358714;28;20280;-68
2022/07/06 11:24:31;;;;;;;3.53;1.80;;;39.10;25.60;;;;;;10309275;28;20960;-68
2022/07/06 11:29:34;;;;;;;5.13;1.67;;;39.30;25.00;;;;;;10338148;28;20716;-68
2022/07/06 11:34:37;;;;;;;2.17;1.13;;;39.20;25.20;;;;;;10316243;28;20233;-69
2022/07/06 11:39:40;;;;;;;2.57;1.10;;;37.40;26.10;;;;;;10317129;28;20217;-67
2022/07/06 11:44:42;;;;;;;2.20;1.60;;;36.50;26.40;;;;;;10329400;28;20226;-68
2022/07/06 11:49:45;;;;;;;6.07;1.90;;;33.10;29.80;;;;;;10329344;28;20233;-67
2022/07/06 11:54:46;;;;;;;5.33;1.70;;;30.60;33.50;;;;;;10341386;28;20229;-66
2022/07/06 11:59:51;;;;;;;1.70;1.60;;;28.90;36.80;;;;;;10331919;28;20218;-67
2022/07/06 12:04:52;;;;;;;3.10;1.67;;;28.00;38.20;;;;;;10329795;28;20296;-69
2022/07/06 12:09:52;;;;;;;4.57;1.60;;;27.00;39.60;;;;;;10337860;28;20231;-67
2022/07/06 12:14:53;;;;;;;2.57;1.90;;;26.50;40.50;;;;;;10327484;28;20240;-68
2022/07/06 12:19:54;;;;;;;3.33;2.10;;;26.10;40.80;;;;;;10315024;28;20217;-68
2022/07/06 12:24:55;;;;;;;4.67;1.63;;;25.80;41.00;;;;;;10307478;28;20229;-68
2022/07/06 12:30:08;;;;;;;2.07;1.70;;;25.50;40.90;;;;;;10326144;28;20232;-67
2022/07/06 12:35:10;;;;;;;4.13;1.57;;;25.20;40.80;;;;;;10329971;28;20602;-67
2022/07/06 12:40:14;;;;;;;2.43;1.40;;;25.10;40.80;;;;;;10329826;28;20226;-68
2022/07/06 12:45:15;;;;;;;4.13;1.50;;;25.20;40.80;;;;;;10327315;28;20665;-68
2022/07/06 12:50:16;;;;;;;10.37;2.00;;;25.30;41.60;;;;;;10314212;28;20318;-68
2022/07/06 12:55:17;;;;;;;2.63;1.40;;;25.30;42.70;;;;;;10291634;28;20290;-67
2022/07/06 13:00:18;;;;;;;3.63;1.57;;;25.40;42.20;;;;;;10349944;28;20301;-66
2022/07/06 13:05:27;;;;;;;3.40;1.30;;;25.50;41.30;;;;;;10343235;28;20260;-67
2022/07/06 13:10:30;;;;;;;3.27;1.53;;;25.40;41.10;;;;;;10351825;28;20270;-67
2022/07/06 13:15:31;;;;;;;1.83;1.23;;;25.60;41.10;;;;;;10336184;28;20744;-67
2022/07/06 13:20:31;;;;;;;5.47;1.20;;;25.60;42.50;;;;;;10359024;28;20299;-68
2022/07/06 13:25:32;;;;;;;4.53;1.20;;;25.60;42.00;;;;;;10351482;28;20223;-68
2022/07/06 13:30:32;;;;;;;2.63;1.17;;;25.10;43.00;;;;;;10339333;28;20297;-68
2022/07/06 13:35:33;;;;;;;3.37;1.20;;;24.60;43.50;;;;;;10340842;28;20229;-67
2022/07/06 13:40:35;;;;;;;5.03;1.57;;;24.60;44.10;;;;;;10350731;28;20228;-68
2022/07/06 13:45:36;;;;;;;6.03;1.37;;;24.60;43.50;;;;;;10356530;28;20225;-68
2022/07/06 13:50:37;;;;;;;2.97;1.40;;;24.60;44.00;;;;;;10348190;28;20597;-68
2022/07/06 13:55:37;;;;;;;2.33;1.23;;;24.60;43.60;;;;;;10349547;28;20240;-67
2022/07/06 14:00:38;;;;;;;4.27;1.30;;;24.70;43.20;;;;;;10345081;28;20253;-67
2022/07/06 14:05:39;;;;;;;2.37;1.30;;;24.70;43.10;;;;;;10346414;28;20236;-67
2022/07/06 14:10:42;;;;;;;2.97;1.03;;;24.90;42.80;;;;;;10347465;28;20591;-68
2022/07/06 14:15:43;;;;;;;7.53;1.50;;;25.00;43.30;;;;;;10336762;28;20245;-67
2022/07/06 14:20:45;;;;;;;5.37;1.40;;;25.00;42.90;;;;;;10347818;28;20226;-68
2022/07/06 14:25:47;;;;;;;2.17;1.30;;;25.00;43.10;;;;;;10345832;28;20222;-68
2022/07/06 14:30:47;;;;;;;3.23;1.43;;;24.90;43.50;;;;;;10347701;28;20263;-67
2022/07/06 14:35:53;;;;;;;4.43;1.80;;;24.70;43.80;;;;;;10353035;28;20228;-68
2022/07/06 14:40:54;;;;;;;4.37;1.47;;;24.50;44.70;;;;;;10350135;28;20607;-68
2022/07/06 14:45:55;;;;;;;4.00;1.40;;;24.50;44.90;;;;;;10350732;28;20213;-67
2022/07/06 14:50:57;;;;;;;3.37;1.57;;;24.50;44.70;;;;;;10342963;28;20219;-66
2022/07/06 14:55:58;;;;;;;7.33;1.60;;;24.40;45.10;;;;;;10335689;28;20230;-67
2022/07/06 15:00:58;;;;;;;3.53;1.30;;;24.50;44.80;;;;;;10336359;28;20501;-67
2022/07/06 15:05:59;;;;;;;2.87;1.10;;;24.50;44.80;;;;;;10330496;28;20226;-66
2022/07/06 15:11:00;;;;;;;8.17;3.63;;;24.30;44.80;;;;;;10347305;28;20303;-66
2022/07/06 15:16:00;;;;;;;3.97;1.30;;;24.30;45.50;;;;;;10320543;28;20295;-67
2022/07/06 15:21:02;;;;;;;3.33;1.33;;;24.30;44.70;;;;;;10330949;28;20607;-68
2022/07/06 15:26:03;;;;;;;5.63;1.20;;;24.20;45.00;;;;;;10318744;28;20301;-68
2022/07/06 15:31:04;;;;;;;3.77;1.30;;;24.30;44.80;;;;;;10339283;28;20218;-69
2022/07/06 15:36:08;;;;;;;2.63;1.17;;;24.60;44.50;;;;;;10331326;28;20225;-73
2022/07/06 15:41:08;;;;;;;1.43;1.30;;;24.60;43.80;;;;;;10321411;28;20653;-68
2022/07/06 15:46:11;;;;;;;3.53;1.70;;;24.70;43.50;;;;;;10317177;28;20246;-67
2022/07/06 15:51:12;;;;;;;3.70;1.37;;;24.70;43.80;;;;;;10330967;28;20229;-68
2022/07/06 15:56:13;;;;;;;3.87;1.40;;;24.70;43.60;;;;;;10325450;28;20596;-67
2022/07/06 16:01:14;;;;;;;2.50;1.20;;;24.70;43.70;;;;;;10319123;28;20214;-66
2022/07/06 16:06:15;;;;;;;3.03;1.50;;;24.60;44.60;;;;;;10333564;28;20222;-66
2022/07/06 16:11:19;;;;;;;4.07;1.70;;;24.70;45.50;;;;;;10332357;28;20869;-66
2022/07/06 16:16:19;;;;;;;4.00;1.60;;;24.90;44.40;;;;;;10341505;28;20273;-66
2022/07/06 16:21:20;;;;;;;5.07;1.87;;;24.90;44.50;;;;;;10332708;28;20225;-65
2022/07/06 16:26:21;;;;;;;4.90;2.27;;;24.80;45.10;;;;;;10338808;28;20228;-63
2022/07/06 16:31:22;;;;;;;4.43;2.03;;;24.70;45.30;;;;;;10344035;28;20225;-63
2022/07/06 16:36:23;;;;;;;3.57;1.93;;;24.50;45.60;;;;;;10340850;28;20250;-65
2022/07/06 16:41:24;;;;;;;4.20;1.70;;;24.40;45.40;;;;;;10339558;28;20315;-65
2022/07/06 16:46:24;;;;;;;3.63;2.00;;;24.50;45.60;;;;;;10347287;28;20334;-66
2022/07/06 16:51:25;;;;;;;4.73;2.27;;;24.40;45.40;;;;;;10337518;28;20221;-67
2022/07/06 16:56:26;;;;;;;3.40;2.10;;;24.30;45.90;;;;;;10317218;28;20237;-65
2022/07/06 17:01:26;;;;;;;6.97;1.90;;;24.30;45.70;;;;;;10310365;28;20280;-66
2022/07/06 17:06:27;;;;;;;2.63;1.80;;;24.20;45.90;;;;;;10347310;28;20270;-65
2022/07/06 17:11:28;;;;;;;2.80;1.70;;;24.00;45.80;;;;;;10361385;28;20231;-66
2022/07/06 17:16:28;;;;;;;3.07;1.50;;;23.90;46.80;;;;;;10348082;28;20295;-63
2022/07/06 17:21:29;;;;;;;2.53;2.17;;;23.80;47.50;;;;;;10341555;28;20209;-63
2022/07/06 17:26:30;;;;;;;3.13;1.50;;;23.60;47.80;;;;;;10342631;28;20242;-63
2022/07/06 17:31:30;;;;;;;5.53;2.13;;;23.50;48.60;;;;;;10339466;28;20233;-64
2022/07/06 17:36:31;;;;;;;3.40;2.00;;;23.40;48.70;;;;;;10347329;28;20233;-65
2022/07/06 17:41:32;;;;;;;3.60;2.00;;;23.20;49.00;;;;;;10347541;28;20701;-65
2022/07/06 17:46:32;;;;;;;3.37;1.87;;;23.00;49.30;;;;;;10347737;28;20241;-65
2022/07/06 17:51:34;;;;;;;2.33;1.67;;;22.90;49.50;;;;;;10350902;28;20230;-64
2022/07/06 17:56:34;;;;;;;3.50;2.00;;;22.80;50.00;;;;;;10341553;28;20236;-64
2022/07/06 18:01:35;;;;;;;2.57;1.93;;;22.70;50.00;;;;;;10340919;28;20302;-65
2022/07/06 18:06:36;;;;;;;3.43;1.73;;;22.60;50.10;;;;;;10339323;28;20237;-66
2022/07/06 18:11:36;;;;;;;2.63;1.57;;;22.50;49.90;;;;;;10352290;28;20598;-65
2022/07/06 18:16:37;;;;;;;4.77;1.63;;;22.40;50.10;;;;;;10345895;28;20288;-64
2022/07/06 18:21:38;;;;;;;2.60;1.40;;;22.40;50.10;;;;;;10352486;28;20229;-66
2022/07/06 18:26:40;;;;;;;2.27;1.50;;;22.30;50.10;;;;;;10346480;28;20272;-64
2022/07/06 18:31:40;;;;;;;3.80;1.57;;;22.20;50.30;;;;;;10336531;28;20228;-65
2022/07/06 18:36:41;;;;;;;2.90;1.40;;;22.10;50.70;;;;;;10345890;28;20731;-65
2022/07/06 18:41:42;;;;;;;1.83;1.40;;;22.00;51.20;;;;;;10350439;28;20255;-64
2022/07/06 18:46:42;;;;;;;1.93;1.27;;;22.00;51.40;;;;;;10345034;28;20296;-65
2022/07/06 18:51:43;;;;;;;3.17;1.50;;;21.80;51.60;;;;;;10350046;28;20225;-65
2022/07/06 18:56:44;;;;;;;2.63;1.30;;;21.70;52.20;;;;;;10346965;28;20266;-67
2022/07/06 19:01:45;;;;;;;2.67;1.37;;;21.60;52.40;;;;;;10341850;28;20712;-65
2022/07/06 19:06:46;;;;;;;4.07;1.40;;;21.40;53.50;;;;;;10342070;28;20228;-66
2022/07/06 19:11:46;;;;;;;2.60;1.30;;;21.30;53.40;;;;;;10334278;28;20672;-66
2022/07/06 19:16:47;;;;;;;4.40;1.37;;;21.30;53.60;;;;;;10327943;28;20693;-67
2022/07/06 19:21:47;;;;;;;1.93;1.10;;;21.20;53.90;;;;;;10324422;28;20210;-66
2022/07/06 19:26:48;;;;;;;4.67;1.10;;;21.10;54.10;;;;;;10345551;28;20613;-68
2022/07/06 19:31:49;;;;;;;2.03;0.93;;;20.90;54.30;;;;;;10332750;28;20612;-67
2022/07/06 19:36:50;;;;;;;4.50;1.50;;;20.80;54.80;;;;;;10344998;28;20237;-65
2022/07/06 19:41:50;;;;;;;4.23;1.50;;;20.60;54.80;;;;;;10347618;28;21066;-66
2022/07/06 19:46:51;;;;;;;3.90;0.93;;;20.40;55.50;;;;;;10336475;28;20294;-64
2022/07/06 19:51:52;;;;;;;5.10;0.93;;;20.20;56.20;;;;;;10325064;28;20230;-65
2022/07/06 19:56:52;;;;;;;3.23;1.23;;;20.20;56.40;;;;;;10320501;28;20239;-67
2022/07/06 20:01:53;;;;;;;3.73;1.40;;;20.10;56.70;;;;;;10346286;28;20264;-66
2022/07/06 20:06:55;;;;;;;2.27;1.40;;;19.90;56.80;;;;;;10329453;28;20217;-65
2022/07/06 20:11:55;;;;;;;4.20;1.30;;;19.60;57.60;;;;;;10333392;28;20309;-65
2022/07/06 20:16:56;;;;;;;2.70;1.20;;;19.30;58.30;;;;;;10340409;28;20229;-66
2022/07/06 20:21:57;;;;;;;1.90;1.03;;;19.10;59.00;;;;;;10334020;28;20848;-66
2022/07/06 20:26:57;;;;;;;4.07;1.50;;;18.90;59.50;;;;;;10333395;28;20237;-66
2022/07/06 20:31:58;;;;;;;2.53;1.43;;;18.80;60.50;;;;;;10323209;28;20308;-66
2022/07/06 20:36:59;;;;;;;2.33;1.80;;;18.70;61.60;;;;;;10328739;28;20233;-66
2022/07/06 20:42:00;;;;;;;3.07;1.73;;;18.50;62.50;;;;;;10339217;28;20308;-66
2022/07/06 20:47:01;;;;;;;2.73;1.80;;;18.40;63.40;;;;;;10336664;28;20719;-66
2022/07/06 20:52:02;;;;;;;3.20;1.40;;;18.30;64.00;;;;;;10336292;28;20309;-66
2022/07/06 20:57:04;;;;;;;2.90;1.60;;;18.20;64.80;;;;;;10344486;28;20225;-65
2022/07/06 21:02:05;;;;;;;2.80;1.53;;;18.10;65.10;;;;;;10334889;28;20214;-66
2022/07/06 21:07:06;;;;;;;4.33;1.80;;;18.00;65.50;;;;;;10352177;28;20249;-66
2022/07/06 21:12:07;;;;;;;3.53;1.70;;;18.00;66.00;;;;;;10336436;28;20279;-66
2022/07/06 21:17:08;;;;;;;3.93;2.10;;;18.00;66.00;;;;;;10345011;28;20892;-65
2022/07/06 21:22:11;;;;;;;2.13;1.93;;;17.90;66.80;;;;;;10331858;28;20316;-66
2022/07/06 21:27:12;;;;;;;4.40;1.70;;;17.90;66.70;;;;;;10337576;28;20871;-66
2022/07/06 21:32:13;;;;;;;3.50;2.00;;;17.80;67.50;;;;;;10340301;28;20225;-66
2022/07/06 21:37:14;;;;;;;3.03;2.23;;;17.80;67.90;;;;;;10352453;28;20242;-67
2022/07/06 21:42:14;;;;;;;4.87;2.00;;;17.70;68.00;;;;;;10342693;28;20695;-67
2022/07/06 21:47:15;;;;;;;7.47;5.97;;;17.70;68.10;;;;;;10348729;28;20227;-66
2022/07/06 21:52:16;;;;;;;4.53;2.20;;;17.70;68.10;;;;;;10320985;28;20235;-65
2022/07/06 21:57:16;;;;;;;8.43;2.07;;;17.80;68.30;;;;;;10347355;28;20258;-65
2022/07/06 22:02:17;;;;;;;2.97;1.87;;;17.90;68.30;;;;;;10343328;28;20228;-65
2022/07/06 22:07:18;;;;;;;2.93;1.90;;;18.00;68.10;;;;;;10352154;28;20370;-65
2022/07/06 22:12:18;;;;;;;2.83;1.63;;;18.10;67.80;;;;;;10340580;28;20225;-65
2022/07/06 22:17:19;;;;;;;2.90;1.70;;;18.20;67.50;;;;;;10336047;28;20793;-65
2022/07/06 22:22:19;;;;;;;3.73;1.50;;;18.20;67.20;;;;;;10343031;28;20305;-65
2022/07/06 22:27:23;;;;;;;6.90;1.33;;;18.30;67.10;;;;;;10344497;28;20231;-65
2022/07/06 22:32:24;;;;;;;3.47;1.13;;;18.20;65.90;;;;;;10338348;28;20283;-66
2022/07/06 22:37:24;;;;;;;1.80;1.40;;;18.10;66.50;;;;;;10336984;28;20583;-66
2022/07/06 22:42:25;;;;;;;1.97;1.20;;;18.10;67.20;;;;;;10340789;28;20218;-66
2022/07/06 22:47:25;;;;;;;2.67;1.67;;;18.10;67.50;;;;;;10339455;28;20225;-66
2022/07/06 22:52:26;;;;;;;5.03;1.67;;;18.10;67.40;;;;;;10327387;28;20293;-67
2022/07/06 22:57:27;;;;;;;8.50;2.03;;;18.00;67.30;;;;;;10350340;28;20236;-66
2022/07/06 23:02:27;;;;;;;3.43;1.47;;;18.00;67.50;;;;;;10326756;28;20305;-66
2022/07/06 23:07:28;;;;;;;3.53;1.70;;;18.00;67.80;;;;;;10334176;28;20228;-67
2022/07/06 23:12:29;;;;;;;6.53;1.90;;;17.90;67.80;;;;;;10345839;28;20232;-66
2022/07/06 23:17:29;;;;;;;3.77;1.77;;;17.90;67.80;;;;;;10336291;28;21822;-65
2022/07/06 23:22:31;;;;;;;5.33;1.50;;;17.90;68.00;;;;;;10334926;28;20732;-66
2022/07/06 23:27:35;;;;;;;4.30;1.80;;;17.80;68.10;;;;;;10327682;28;20254;-65
2022/07/06 23:32:36;;;;;;;2.07;1.70;;;17.80;68.50;;;;;;10342596;28;20290;-65
2022/07/06 23:37:37;;;;;;;4.87;1.60;;;17.80;68.80;;;;;;10333028;28;20240;-65
2022/07/06 23:42:41;;;;;;;3.17;1.70;;;17.80;69.20;;;;;;10337982;28;20247;-64
2022/07/06 23:47:41;;;;;;;3.40;1.60;;;17.80;69.40;;;;;;10325968;28;20224;-64
2022/07/06 23:52:42;;;;;;;5.77;1.80;;;17.80;69.50;;;;;;10343862;28;20254;-64
2022/07/06 23:57:42;;;;;;;3.50;1.60;;;17.80;69.90;;;;;;10346396;28;20235;-64
